EGAC/BHD METAR and TAF weather

Enter ICAO airport designator
Station Type Date Time Source
EGAC METAR 2021/07/27 21:20 UTC NOAA

EGAC 272120Z AUTO 32004KT 250V360 6000 -RA BKN008/// BKN014/// BKN039/// 14/13 Q1006 RERA


Station Type Date Time Source
EGAC Decoded METAR 2021/07/27 21:20 UTC NOAA

Belfast / Harbour, United Kingdom (EGAC) 54-36N 005-53W 0M
Jul 27, 2021 - 05:20 PM EDT / 2021.07.27 2120 UTC
Wind: from the NW (320 degrees) at 5 MPH (4 KT) (direction variable):0
Visibility: 3 mile(s):0
Sky conditions: mostly cloudy
Weather: light rain
Temperature: 57 F (14 C)
Dew Point: 55 F (13 C)
Relative Humidity: 93%
Pressure (altimeter): 29.71 in. Hg (1006 hPa)
ob: EGAC 272120Z AUTO 32004KT 250V360 6000 -RA BKN008/// BKN014/// BKN039/// 14/13 Q1006 RERA
cycle: 21

Station Type Date Time Source
EGAC TAF UTC NOAA

Error!

Example: see airport list